Time,TemperatureF,DewpointF,PressureIn,WindDirection,WindDirectionDegrees,WindSpeedMPH,WindSpeedGustMPH,Humidity,HourlyPrecipIn,Conditions,Clouds,dailyrainin,SoftwareType,DateUTC
2013-05-27 00:12:00,50.0,38.7,30.09,NNW,337,4.0,-999.0,65,-99.99,,,0.00,Acu-Link.com,2013-05-27 04:12:00,
2013-05-27 00:27:00,50.0,38.7,30.09,ENE,67,2.7,-999.0,65,-99.99,,,0.00,Acu-Link.com,2013-05-27 04:27:00,
2013-05-27 00:42:00,50.0,38.7,30.09,NE,45,2.7,-999.0,65,-99.99,,,0.00,Acu-Link.com,2013-05-27 04:42:00,
2013-05-27 00:57:00,48.2,37.8,30.09,NW,315,3.1,-999.0,67,-99.99,,,0.00,Acu-Link.com,2013-05-27 04:57:00,
2013-05-27 01:13:00,48.2,37.8,30.09,WSW,247,4.7,-999.0,67,-99.99,,,0.00,Acu-Link.com,2013-05-27 05:13:00,
2013-05-27 01:28:00,48.2,37.4,30.10,NNE,22,4.0,-999.0,66,-99.99,,,0.00,Acu-Link.com,2013-05-27 05:28:00,
2013-05-27 01:43:00,48.2,37.4,30.09,ESE,112,5.6,-999.0,66,-99.99,,,0.00,Acu-Link.com,2013-05-27 05:43:00,
2013-05-27 01:59:00,48.2,37.4,30.09,SE,135,4.0,-999.0,66,-99.99,,,0.00,Acu-Link.com,2013-05-27 05:59:00,
2013-05-27 02:14:00,48.2,37.4,30.09,West,270,7.2,-999.0,66,-99.99,,,0.00,Acu-Link.com,2013-05-27 06:14:00,
2013-05-27 02:29:00,48.2,37.4,30.10,WSW,247,5.1,-999.0,66,-99.99,,,0.00,Acu-Link.com,2013-05-27 06:29:00,
2013-05-27 02:45:00,48.2,37.4,30.09,North,0,6.3,-999.0,66,-99.99,,,0.00,Acu-Link.com,2013-05-27 06:45:00,
2013-05-27 03:00:00,48.2,37.8,30.10,WNW,292,3.1,-999.0,67,-99.99,,,0.00,Acu-Link.com,2013-05-27 07:00:00,
2013-05-27 03:15:00,48.2,37.4,30.10,WNW,292,4.7,-999.0,66,-99.99,,,0.00,Acu-Link.com,2013-05-27 07:15:00,
2013-05-27 03:30:00,46.4,36.4,30.10,NW,315,4.7,-999.0,68,-99.99,,,0.00,Acu-Link.com,2013-05-27 07:30:00,
2013-05-27 03:46:00,46.4,36.8,30.10,SW,225,3.1,-999.0,69,-99.99,,,0.00,Acu-Link.com,2013-05-27 07:46:00,
2013-05-27 04:01:00,46.4,36.8,30.11,NE,45,4.7,-999.0,69,-99.99,,,0.00,Acu-Link.com,2013-05-27 08:01:00,
2013-05-27 04:17:00,46.4,36.8,30.11,ENE,67,3.1,-999.0,69,-99.99,,,0.00,Acu-Link.com,2013-05-27 08:17:00,
2013-05-27 04:32:00,46.4,36.8,30.11,West,270,4.0,-999.0,69,-99.99,,,0.00,Acu-Link.com,2013-05-27 08:32:00,
2013-05-27 04:47:00,46.4,37.2,30.11,NNW,337,4.7,-999.0,70,-99.99,,,0.00,Acu-Link.com,2013-05-27 08:47:00,
2013-05-27 05:02:00,44.6,35.8,30.12,West,270,3.1,-999.0,71,-99.99,,,0.00,Acu-Link.com,2013-05-27 09:02:00,
2013-05-27 05:17:00,44.6,35.8,30.13,NNW,337,1.6,-999.0,71,-99.99,,,0.00,Acu-Link.com,2013-05-27 09:17:00,
2013-05-27 05:32:00,44.6,35.8,30.13,NNW,337,3.6,-999.0,71,-99.99,,,0.00,Acu-Link.com,2013-05-27 09:32:00,
2013-05-27 05:48:00,46.4,37.2,30.13,NNW,337,5.6,-999.0,70,-99.99,,,0.00,Acu-Link.com,2013-05-27 09:48:00,
2013-05-27 06:03:00,46.4,36.8,30.14,NNE,22,3.6,-999.0,69,-99.99,,,0.00,Acu-Link.com,2013-05-27 10:03:00,
2013-05-27 06:18:00,46.4,36.8,30.14,WSW,247,5.6,-999.0,69,-99.99,,,0.00,Acu-Link.com,2013-05-27 10:18:00,
2013-05-27 06:33:00,46.4,36.8,30.15,ENE,67,4.0,-999.0,69,-99.99,,,0.00,Acu-Link.com,2013-05-27 10:33:00,
2013-05-27 06:49:00,48.2,37.8,30.15,NNE,22,4.0,-999.0,67,-99.99,,,0.00,Acu-Link.com,2013-05-27 10:49:00,
2013-05-27 07:04:00,50.0,39.5,30.16,ENE,67,2.0,-999.0,67,-99.99,,,0.00,Acu-Link.com,2013-05-27 11:04:00,
2013-05-27 07:19:00,50.0,39.1,30.15,North,0,5.6,-999.0,66,-99.99,,,0.00,Acu-Link.com,2013-05-27 11:19:00,
2013-05-27 07:34:00,51.8,40.0,30.16,WSW,247,8.3,-999.0,64,-99.99,,,0.00,Acu-Link.com,2013-05-27 11:34:00,
2013-05-27 07:49:00,53.6,40.5,30.16,West,270,4.0,-999.0,61,-99.99,,,0.00,Acu-Link.com,2013-05-27 11:49:00,
2013-05-27 08:04:00,53.6,40.1,30.16,NE,45,2.7,-999.0,60,-99.99,,,0.00,Acu-Link.com,2013-05-27 12:04:00,
2013-05-27 08:19:00,55.4,40.9,30.17,NE,45,4.0,-999.0,58,-99.99,,,0.00,Acu-Link.com,2013-05-27 12:19:00,
2013-05-27 08:34:00,55.4,41.3,30.16,WNW,292,4.7,-999.0,59,-99.99,,,0.00,Acu-Link.com,2013-05-27 12:34:00,
2013-05-27 08:50:00,55.4,40.0,30.18,NNW,337,4.7,-999.0,56,-99.99,,,0.00,Acu-Link.com,2013-05-27 12:50:00,
2013-05-27 09:05:00,57.2,42.1,30.17,NNW,337,6.7,-999.0,57,-99.99,,,0.00,Acu-Link.com,2013-05-27 13:05:00,
2013-05-27 09:21:00,59.0,41.4,30.17,SW,225,7.2,-999.0,52,-99.99,,,0.00,Acu-Link.com,2013-05-27 13:21:00,
2013-05-27 09:37:00,59.0,41.4,30.17,WNW,292,5.1,-999.0,52,-99.99,,,0.00,Acu-Link.com,2013-05-27 13:37:00,
2013-05-27 09:52:00,60.8,42.6,30.16,NW,315,6.3,-999.0,51,-99.99,,,0.00,Acu-Link.com,2013-05-27 13:52:00,
2013-05-27 10:07:00,60.8,40.4,30.16,NNE,22,6.3,-999.0,47,-99.99,,,0.00,Acu-Link.com,2013-05-27 14:07:00,
2013-05-27 10:22:00,62.6,42.6,30.16,SW,225,8.7,-999.0,48,-99.99,,,0.00,Acu-Link.com,2013-05-27 14:22:00,
2013-05-27 10:37:00,62.6,40.4,30.16,SW,225,5.1,-999.0,44,-99.99,,,0.00,Acu-Link.com,2013-05-27 14:37:00,
2013-05-27 10:53:00,62.6,42.1,30.16,SE,135,1.6,-999.0,47,-99.99,,,0.00,Acu-Link.com,2013-05-27 14:53:00,
2013-05-27 11:08:00,64.4,39.6,30.16,West,270,7.8,-999.0,40,-99.99,,,0.00,Acu-Link.com,2013-05-27 15:08:00,
2013-05-27 11:23:00,64.4,38.9,30.15,West,270,7.2,-999.0,39,-99.99,,,0.00,Acu-Link.com,2013-05-27 15:23:00,
2013-05-27 11:38:00,64.4,39.6,30.14,ESE,112,5.1,-999.0,40,-99.99,,,0.00,Acu-Link.com,2013-05-27 15:38:00,
2013-05-27 11:54:00,64.4,34.7,30.13,West,270,13.4,-999.0,33,-99.99,,,0.00,Acu-Link.com,2013-05-27 15:54:00,
2013-05-27 12:09:00,64.4,34.7,30.13,NE,45,7.8,-999.0,33,-99.99,,,0.00,Acu-Link.com,2013-05-27 16:09:00,
2013-05-27 12:24:00,64.4,34.7,30.13,SSW,202,13.4,-999.0,33,-99.99,,,0.00,Acu-Link.com,2013-05-27 16:24:00,
2013-05-27 12:40:00,66.2,36.2,30.13,NNW,337,9.2,-999.0,33,-99.99,,,0.00,Acu-Link.com,2013-05-27 16:40:00,
2013-05-27 12:55:00,66.2,37.0,30.13,West,270,5.6,-999.0,34,-99.99,,,0.00,Acu-Link.com,2013-05-27 16:55:00,
2013-05-27 13:10:00,66.2,41.2,30.12,SSE,157,5.1,-999.0,40,-99.99,,,0.00,Acu-Link.com,2013-05-27 17:10:00,
2013-05-27 13:25:00,68.0,40.8,30.11,ENE,67,6.3,-999.0,37,-99.99,,,0.00,Acu-Link.com,2013-05-27 17:25:00,
2013-05-27 13:40:00,69.8,43.0,30.11,WSW,247,4.0,-999.0,38,-99.99,,,0.00,Acu-Link.com,2013-05-27 17:40:00,
2013-05-27 13:55:00,68.0,40.8,30.11,NNW,337,5.1,-999.0,37,-99.99,,,0.00,Acu-Link.com,2013-05-27 17:55:00,
2013-05-27 14:10:00,68.0,42.1,30.10,NW,315,5.1,-999.0,39,-99.99,,,0.00,Acu-Link.com,2013-05-27 18:10:00,
2013-05-27 14:25:00,68.0,40.8,30.10,NNW,337,4.7,-999.0,37,-99.99,,,0.00,Acu-Link.com,2013-05-27 18:25:00,
2013-05-27 14:40:00,68.0,40.8,30.10,West,270,4.0,-999.0,37,-99.99,,,0.00,Acu-Link.com,2013-05-27 18:40:00,
2013-05-27 14:55:00,69.8,42.3,30.10,WSW,247,7.8,-999.0,37,-99.99,,,0.00,Acu-Link.com,2013-05-27 18:55:00,
2013-05-27 15:10:00,69.8,43.0,30.10,NE,45,3.1,-999.0,38,-99.99,,,0.00,Acu-Link.com,2013-05-27 19:10:00,
2013-05-27 15:25:00,69.8,40.2,30.09,NNW,337,8.3,-999.0,34,-99.99,,,0.00,Acu-Link.com,2013-05-27 19:25:00,
2013-05-27 15:40:00,69.8,45.0,30.09,NE,45,4.0,-999.0,41,-99.99,,,0.00,Acu-Link.com,2013-05-27 19:40:00,
2013-05-27 15:56:00,69.8,40.9,30.09,North,0,2.7,-999.0,35,-99.99,,,0.00,Acu-Link.com,2013-05-27 19:56:00,
2013-05-27 16:11:00,69.8,40.9,30.08,North,0,6.3,-999.0,35,-99.99,,,0.00,Acu-Link.com,2013-05-27 20:11:00,
2013-05-27 16:26:00,69.8,40.2,30.08,West,270,2.7,-999.0,34,-99.99,,,0.00,Acu-Link.com,2013-05-27 20:26:00,
2013-05-27 16:41:00,69.8,39.4,30.08,SW,225,4.7,-999.0,33,-99.99,,,0.00,Acu-Link.com,2013-05-27 20:41:00,
2013-05-27 16:56:00,69.8,40.2,30.09,NE,45,9.8,-999.0,34,-99.99,,,0.00,Acu-Link.com,2013-05-27 20:56:00,
2013-05-27 17:11:00,71.6,40.2,30.08,ENE,67,3.1,-999.0,32,-99.99,,,0.00,Acu-Link.com,2013-05-27 21:11:00,
2013-05-27 17:27:00,69.8,38.6,30.08,NNE,22,5.1,-999.0,32,-99.99,,,0.00,Acu-Link.com,2013-05-27 21:27:00,
2013-05-27 17:42:00,71.6,39.4,30.09,SW,225,3.1,-999.0,31,-99.99,,,0.00,Acu-Link.com,2013-05-27 21:42:00,
2013-05-27 17:57:00,71.6,38.5,30.08,WNW,292,7.8,-999.0,30,-99.99,,,0.00,Acu-Link.com,2013-05-27 21:57:00,
2013-05-27 18:13:00,69.8,39.4,30.08,East,90,2.7,-999.0,33,-99.99,,,0.00,Acu-Link.com,2013-05-27 22:13:00,
2013-05-27 18:28:00,71.6,37.7,30.08,NNW,337,6.7,-999.0,29,-99.99,,,0.00,Acu-Link.com,2013-05-27 22:28:00,
2013-05-27 18:43:00,71.6,38.5,30.09,West,270,4.0,-999.0,30,-99.99,,,0.00,Acu-Link.com,2013-05-27 22:43:00,
2013-05-27 19:00:00,68.0,35.4,30.08,West,270,2.0,-999.0,30,-99.99,,,0.00,Acu-Link.com,2013-05-27 23:00:00,
2013-05-27 19:15:00,68.0,36.2,30.09,NW,315,2.7,-999.0,31,-99.99,,,0.00,Acu-Link.com,2013-05-27 23:15:00,
2013-05-27 19:30:00,66.2,36.2,30.09,ENE,67,4.7,-999.0,33,-99.99,,,0.00,Acu-Link.com,2013-05-27 23:30:00,
2013-05-27 19:45:00,64.4,36.2,30.09,NNE,22,3.1,-999.0,35,-99.99,,,0.00,Acu-Link.com,2013-05-27 23:45:00,
2013-05-27 20:00:00,62.6,38.6,30.10,WNW,292,2.7,-999.0,41,-99.99,,,0.00,Acu-Link.com,2013-05-28 00:00:00,
2013-05-27 20:15:00,60.8,37.0,30.10,WNW,292,1.1,-999.0,41,-99.99,,,0.00,Acu-Link.com,2013-05-28 00:15:00,
2013-05-27 20:31:00,60.8,38.2,30.10,SSW,202,1.6,-999.0,43,-99.99,,,0.00,Acu-Link.com,2013-05-28 00:31:00,
2013-05-27 20:46:00,60.8,37.0,30.10,NNW,337,3.1,-999.0,41,-99.99,,,0.00,Acu-Link.com,2013-05-28 00:46:00,
2013-05-27 21:03:00,59.0,35.9,30.11,ENE,67,2.0,-999.0,42,-99.99,,,0.00,Acu-Link.com,2013-05-28 01:03:00,
2013-05-27 21:18:00,59.0,35.9,30.10,NE,45,1.6,-999.0,42,-99.99,,,0.00,Acu-Link.com,2013-05-28 01:18:00,
2013-05-27 21:33:00,59.0,34.7,30.11,NE,45,3.6,-999.0,40,-99.99,,,0.00,Acu-Link.com,2013-05-28 01:33:00,
2013-05-27 21:48:00,59.0,34.7,30.11,North,0,3.6,-999.0,40,-99.99,,,0.00,Acu-Link.com,2013-05-28 01:48:00,
2013-05-27 22:03:00,57.2,36.1,30.11,NNE,22,2.0,-999.0,45,-99.99,,,0.00,Acu-Link.com,2013-05-28 02:03:00,
2013-05-27 22:19:00,55.4,37.1,30.11,NE,45,0.0,-999.0,50,-99.99,,,0.00,Acu-Link.com,2013-05-28 02:19:00,
2013-05-27 22:34:00,53.6,39.2,30.12,ESE,112,0.0,-999.0,58,-99.99,,,0.00,Acu-Link.com,2013-05-28 02:34:00,
2013-05-27 22:50:00,51.8,39.2,30.12,ENE,67,0.0,-999.0,62,-99.99,,,0.00,Acu-Link.com,2013-05-28 02:50:00,
2013-05-27 23:06:00,50.0,38.7,30.13,ENE,67,0.0,-999.0,65,-99.99,,,0.00,Acu-Link.com,2013-05-28 03:06:00,
2013-05-27 23:21:00,50.0,41.0,30.14,ENE,67,0.0,-999.0,71,-99.99,,,0.00,Acu-Link.com,2013-05-28 03:21:00,
2013-05-27 23:36:00,48.2,37.4,30.14,ENE,67,0.0,-999.0,66,-99.99,,,0.00,Acu-Link.com,2013-05-28 03:36:00,
2013-05-27 23:51:00,48.2,37.8,30.15,NE,45,0.0,-999.0,67,-99.99,,,0.00,Acu-Link.com,2013-05-28 03:51:00,